Time;durP1;ratioP1;P1;durP2;ratioP2;P2;SDS_P1;SDS_P2;PMS_P1;PMS_P2;Temp;Humidity;BMP_temperature;BMP_pressure;BME280_temperature;BME280_humidity;BME280_pressure;Samples;Min_cycle;Max_cycle;Signal;HPM_P1;HPM_P2
2022/09/30 06:02:29;;;;;;;9.43;5.37;;;11.70;81.00;;;;;;5106617;23;20483;-94
2022/09/30 06:05:03;;;;;;;9.47;5.23;;;11.70;81.10;;;;;;4919742;29;20213;-95
2022/09/30 06:07:34;;;;;;;9.07;4.67;;;11.70;81.90;;;;;;4919000;29;20235;-95
2022/09/30 06:10:05;;;;;;;7.93;4.57;;;11.70;82.10;;;;;;4899484;29;20667;-94
2022/09/30 06:12:41;;;;;;;9.20;5.27;;;11.70;82.90;;;;;;4902450;29;20214;-95
2022/09/30 06:15:14;;;;;;;8.20;5.00;;;11.70;83.90;;;;;;4922030;29;20276;-95
2022/09/30 06:17:52;;;;;;;9.23;5.20;;;11.70;84.20;;;;;;4916236;29;20215;-95
2022/09/30 06:20:20;;;;;;;9.83;5.17;;;11.80;85.20;;;;;;4907631;29;20212;-94
2022/09/30 06:22:53;;;;;;;12.67;6.10;;;11.80;84.30;;;;;;4922528;29;20206;-92
2022/09/30 06:28:26;;;;;;;12.60;5.90;;;11.90;85.80;;;;;;4905568;29;20233;-94
2022/09/30 06:30:54;;;;;;;13.27;5.93;;;11.90;85.00;;;;;;4892543;29;20212;-94
2022/09/30 06:33:26;;;;;;;16.07;6.70;;;12.00;85.40;;;;;;4878706;29;20210;-93
2022/09/30 06:35:55;;;;;;;12.03;5.80;;;12.00;86.20;;;;;;4900529;29;20216;-93
2022/09/30 06:38:22;;;;;;;16.73;7.13;;;12.00;85.70;;;;;;4904358;29;20667;-93
2022/09/30 06:40:55;;;;;;;11.43;5.73;;;12.10;85.50;;;;;;4900351;29;20220;-93
2022/09/30 06:43:22;;;;;;;18.00;6.17;;;12.20;86.70;;;;;;4896134;29;20211;-92
2022/09/30 06:45:51;;;;;;;12.33;6.00;;;12.20;85.80;;;;;;4898884;29;20246;-92
2022/09/30 06:48:22;;;;;;;12.37;6.10;;;12.30;86.60;;;;;;4897189;29;20320;-94
2022/09/30 06:50:58;;;;;;;15.47;6.80;;;12.20;85.90;;;;;;4897177;29;20209;-95
2022/09/30 06:53:43;;;;;;;14.60;6.67;;;12.30;87.50;;;;;;4897394;29;20210;-94
2022/09/30 06:56:11;;;;;;;15.83;7.10;;;12.30;87.90;;;;;;4898876;29;20208;-94
2022/09/30 06:58:44;;;;;;;19.13;7.50;;;12.40;86.60;;;;;;4910397;29;20215;-93
2022/09/30 07:01:14;;;;;;;15.73;6.27;;;12.40;87.60;;;;;;4894022;29;20241;-93
2022/09/30 07:03:43;;;;;;;12.27;6.00;;;12.50;86.90;;;;;;4897291;29;20215;-93
2022/09/30 07:06:15;;;;;;;14.67;7.00;;;12.50;87.40;;;;;;4912159;29;20213;-93
2022/09/30 07:08:44;;;;;;;12.47;5.93;;;12.60;88.00;;;;;;4906077;29;20247;-92
2022/09/30 07:11:31;;;;;;;17.40;7.03;;;12.60;87.10;;;;;;4919620;29;20275;-93
2022/09/30 07:13:59;;;;;;;10.50;5.87;;;12.60;88.40;;;;;;4899821;29;20211;-93
2022/09/30 07:16:26;;;;;;;14.23;6.60;;;12.70;87.40;;;;;;4884709;29;20217;-92
2022/09/30 07:19:03;;;;;;;8.57;5.00;;;12.70;87.20;;;;;;4897253;29;20217;-94
2022/09/30 07:21:33;;;;;;;9.03;5.63;;;12.70;88.30;;;;;;4916926;29;20215;-93
2022/09/30 07:24:01;;;;;;;8.60;4.97;;;12.80;88.00;;;;;;4905915;29;20247;-92
2022/09/30 07:26:32;;;;;;;15.43;6.83;;;12.80;87.20;;;;;;4907388;29;20209;-93
2022/09/30 07:29:01;;;;;;;17.83;7.37;;;12.90;87.30;;;;;;4928486;29;20201;-92
2022/09/30 07:31:33;;;;;;;11.33;6.03;;;12.90;86.60;;;;;;4921592;29;20212;-93
2022/09/30 07:34:06;;;;;;;10.30;5.33;;;13.00;87.40;;;;;;4928294;29;20724;-93
2022/09/30 07:39:25;;;;;;;13.30;6.63;;;13.00;87.70;;;;;;4899245;29;20217;-90
2022/09/30 07:45:03;;;;;;;11.33;6.20;;;13.10;87.50;;;;;;4881695;29;20576;-92
2022/09/30 07:47:43;;;;;;;12.83;7.23;;;13.10;88.10;;;;;;4895488;29;20283;-90
2022/09/30 07:50:14;;;;;;;13.50;7.33;;;13.20;88.40;;;;;;4899763;29;20235;-91
2022/09/30 07:53:04;;;;;;;10.63;6.53;;;13.30;88.60;;;;;;4900375;29;20210;-96
2022/09/30 07:55:38;;;;;;;12.10;6.93;;;13.30;90.00;;;;;;4882030;29;20229;-91
2022/09/30 07:58:24;;;;;;;13.07;7.53;;;13.30;89.80;;;;;;4901123;29;20211;-94
2022/09/30 08:01:00;;;;;;;9.80;6.80;;;13.40;90.10;;;;;;4906295;29;20224;-96
2022/09/30 08:07:04;;;;;;;11.67;6.33;;;13.60;90.60;;;;;;4902227;29;20200;-96
2022/09/30 08:12:32;;;;;;;18.37;8.70;;;13.70;90.00;;;;;;4935450;23;20231;-96
2022/09/30 08:15:01;;;;;;;15.10;7.93;;;13.80;90.20;;;;;;4915989;23;20248;-92
2022/09/30 08:17:41;;;;;;;12.40;7.63;;;13.90;90.10;;;;;;4917928;29;20670;-92
2022/09/30 08:20:18;;;;;;;10.57;7.20;;;14.00;90.80;;;;;;4909135;29;20196;-93
2022/09/30 08:22:53;;;;;;;22.13;10.23;;;14.10;90.60;;;;;;4920751;29;20715;-93
2022/09/30 08:25:32;;;;;;;10.70;7.43;;;14.20;90.90;;;;;;4923796;29;20238;-92
2022/09/30 08:28:05;;;;;;;11.10;7.50;;;14.30;90.90;;;;;;4908773;29;20232;-93
2022/09/30 08:30:36;;;;;;;12.73;7.27;;;14.40;90.80;;;;;;4904374;29;20211;-93
2022/09/30 08:33:06;;;;;;;14.13;8.17;;;14.50;90.90;;;;;;4907828;29;20228;-91
2022/09/30 08:35:40;;;;;;;15.00;8.27;;;14.70;91.00;;;;;;4907857;29;20241;-93
2022/09/30 08:38:43;;;;;;;10.77;6.73;;;14.80;91.00;;;;;;4906145;29;20210;-92
2022/09/30 08:41:48;;;;;;;8.50;6.63;;;15.10;91.10;;;;;;4903045;29;20244;-92
2022/09/30 08:44:29;;;;;;;11.93;6.97;;;15.30;91.10;;;;;;4902351;29;20238;-91
2022/09/30 09:01:17;;;;;;;11.90;6.47;;;15.90;90.20;;;;;;6201536;22;1408525;-93
2022/09/30 09:03:46;;;;;;;13.87;7.07;;;17.90;82.30;;;;;;6254628;23;20410;-93
2022/09/30 09:06:22;;;;;;;14.67;7.07;;;18.30;81.40;;;;;;6254493;23;20178;-92
2022/09/30 09:09:11;;;;;;;9.30;5.63;;;18.60;78.20;;;;;;6251771;23;20197;-91
2022/09/30 09:11:53;;;;;;;8.27;5.23;;;18.90;78.10;;;;;;6253503;23;20174;-91
2022/09/30 09:14:30;;;;;;;10.43;5.87;;;19.30;77.80;;;;;;6251362;23;20178;-90
2022/09/30 09:17:12;;;;;;;11.23;6.07;;;19.50;77.10;;;;;;6255098;23;20201;-91
2022/09/30 09:19:45;;;;;;;14.13;6.60;;;19.80;75.80;;;;;;6254576;23;20187;-93
2022/09/30 09:22:24;;;;;;;11.60;5.87;;;20.10;74.50;;;;;;6256158;23;20217;-96
2022/09/30 09:28:07;;;;;;;10.23;5.77;;;20.60;71.20;;;;;;6259360;23;20195;-96
2022/09/30 09:34:00;;;;;;;7.90;4.20;;;21.10;68.90;;;;;;6166229;23;20213;-93
2022/09/30 09:40:12;;;;;;;8.03;4.30;;;21.60;67.50;;;;;;6132902;23;20174;-95
2022/09/30 09:43:02;;;;;;;5.73;3.87;;;21.80;66.90;;;;;;6136964;23;20181;-94
2022/09/30 09:45:36;;;;;;;5.23;3.67;;;22.00;65.70;;;;;;6134989;23;20279;-95
2022/09/30 09:48:09;;;;;;;9.13;4.57;;;22.10;66.10;;;;;;6133160;23;20509;-92
2022/09/30 09:51:14;;;;;;;7.03;3.90;;;22.30;64.90;;;;;;6134056;23;20200;-93
2022/09/30 09:54:01;;;;;;;10.73;4.97;;;22.40;63.70;;;;;;6109787;23;20213;-95
2022/09/30 09:56:38;;;;;;;8.10;4.33;;;22.50;62.40;;;;;;6138699;23;20166;-94
2022/09/30 09:59:14;;;;;;;9.10;4.13;;;22.60;63.60;;;;;;6136917;23;20178;-96
2022/09/30 10:01:43;;;;;;;5.70;3.23;;;22.70;61.70;;;;;;6136632;23;20174;-93
2022/09/30 10:04:20;;;;;;;8.87;4.37;;;22.70;61.90;;;;;;6136194;23;20181;-92
2022/09/30 10:07:20;;;;;;;4.43;3.17;;;22.80;61.10;;;;;;6138222;23;20185;-95
2022/09/30 10:09:47;;;;;;;5.43;3.30;;;22.90;60.10;;;;;;6147008;23;20191;-95
2022/09/30 10:12:37;;;;;;;12.97;5.03;;;22.90;62.20;;;;;;6169073;23;20172;-94
2022/09/30 10:18:24;;;;;;;6.47;3.73;;;23.00;58.60;;;;;;6140618;23;20181;-93
2022/09/30 10:20:59;;;;;;;5.77;3.67;;;23.10;60.60;;;;;;6169307;23;20196;-94
2022/09/30 10:23:41;;;;;;;7.77;4.23;;;23.10;60.30;;;;;;6172264;23;20195;-96
2022/09/30 10:26:20;;;;;;;6.10;3.77;;;23.10;58.60;;;;;;6172957;23;20184;-94
2022/09/30 10:32:14;;;;;;;7.03;4.33;;;23.10;58.10;;;;;;6164504;23;20223;-96
2022/09/30 10:35:25;;;;;;;4.80;3.50;;;23.10;58.10;;;;;;6170828;23;20168;-96
2022/09/30 10:37:58;;;;;;;5.00;3.23;;;23.20;59.20;;;;;;6164066;23;20560;-92
2022/09/30 10:44:01;;;;;;;4.63;3.20;;;23.30;58.20;;;;;;6065820;23;20175;-95
2022/09/30 10:50:06;;;;;;;;;;;;;;;;;;;;;
2022/09/30 10:52:43;;;;;;;7.27;4.37;;;23.40;58.10;;;;;;6160794;23;20222;-93
2022/09/30 10:55:29;;;;;;;7.57;4.13;;;23.40;58.10;;;;;;6156627;23;20173;-96
2022/09/30 10:58:38;;;;;;;4.47;3.20;;;23.50;57.10;;;;;;6156089;23;20231;-92
2022/09/30 11:01:20;;;;;;;5.37;3.20;;;23.50;56.80;;;;;;6156560;23;20177;-94
2022/09/30 11:03:57;;;;;;;5.63;3.73;;;23.50;57.40;;;;;;6155655;23;20166;-90
2022/09/30 11:06:28;;;;;;;4.33;2.93;;;23.60;57.30;;;;;;6157597;23;20173;-89
2022/09/30 11:12:16;;;;;;;9.63;4.53;;;23.70;57.10;;;;;;6154365;23;20508;-96
2022/09/30 11:14:48;;;;;;;5.50;3.43;;;23.80;57.40;;;;;;6155631;23;20185;-93
2022/09/30 11:17:31;;;;;;;4.70;3.13;;;23.90;57.00;;;;;;6156497;23;20224;-88
2022/09/30 11:20:08;;;;;;;4.47;2.97;;;24.00;56.60;;;;;;6155098;23;20222;-93
2022/09/30 11:22:45;;;;;;;5.60;3.10;;;24.10;56.50;;;;;;6157558;23;20263;-93
2022/09/30 11:25:15;;;;;;;8.53;4.63;;;24.10;56.40;;;;;;6154224;23;20673;-95
2022/09/30 11:28:08;;;;;;;6.67;3.47;;;24.10;56.00;;;;;;6153512;23;20170;-90
2022/09/30 11:30:44;;;;;;;8.70;4.73;;;24.20;55.60;;;;;;6151238;23;20220;-90
2022/09/30 11:33:32;;;;;;;8.87;4.60;;;24.30;55.50;;;;;;6151552;23;20252;-90
2022/09/30 11:36:19;;;;;;;9.07;3.77;;;24.30;54.40;;;;;;6151639;23;20256;-93
2022/09/30 11:39:21;;;;;;;6.30;3.93;;;24.20;54.60;;;;;;6152970;23;20642;-94
2022/09/30 11:41:55;;;;;;;8.33;3.90;;;24.30;55.00;;;;;;6151504;23;20215;-92
2022/09/30 11:44:32;;;;;;;7.07;4.07;;;24.30;54.80;;;;;;6154477;23;20172;-89
2022/09/30 11:47:16;;;;;;;7.57;4.23;;;24.30;54.30;;;;;;6153557;23;20177;-91
2022/09/30 11:50:16;;;;;;;8.40;4.07;;;24.20;53.70;;;;;;6153779;23;20193;-93
2022/09/30 11:52:54;;;;;;;6.43;4.20;;;24.20;54.30;;;;;;6154424;23;20181;-91
2022/09/30 11:55:52;;;;;;;9.77;4.80;;;24.10;53.90;;;;;;6155423;23;20248;-91
2022/09/30 11:58:22;;;;;;;6.77;3.77;;;24.10;53.80;;;;;;6152911;23;20173;-89
2022/09/30 12:00:54;;;;;;;9.13;4.50;;;24.00;54.30;;;;;;6151725;23;20227;-90
2022/09/30 12:03:38;;;;;;;9.27;4.73;;;23.90;53.90;;;;;;6164798;23;20171;-93
2022/09/30 12:06:14;;;;;;;8.83;4.40;;;23.80;53.30;;;;;;6156583;23;20199;-90
2022/09/30 12:08:49;;;;;;;7.17;3.93;;;23.70;54.10;;;;;;6161767;23;20173;-92
2022/09/30 12:11:37;;;;;;;11.33;4.23;;;23.70;54.30;;;;;;6160139;23;20693;-92
2022/09/30 12:14:10;;;;;;;6.20;3.60;;;23.60;53.80;;;;;;6155359;23;20502;-88
2022/09/30 12:16:46;;;;;;;10.40;5.10;;;23.60;54.40;;;;;;6153839;23;20205;-90
2022/09/30 12:19:41;;;;;;;6.07;3.30;;;23.50;53.60;;;;;;6154242;23;20171;-92
2022/09/30 12:22:16;;;;;;;7.03;3.80;;;23.50;53.40;;;;;;6113667;23;20262;-88
2022/09/30 12:24:47;;;;;;;5.57;3.17;;;23.50;53.30;;;;;;6151082;23;20169;-90
2022/09/30 12:27:20;;;;;;;6.67;3.23;;;23.60;53.40;;;;;;6152339;23;20188;-88
2022/09/30 12:33:13;;;;;;;8.47;4.10;;;23.50;52.80;;;;;;6171685;23;20219;-92
2022/09/30 12:36:12;;;;;;;4.73;2.77;;;23.50;52.70;;;;;;6162691;23;20648;-89
2022/09/30 12:39:14;;;;;;;4.73;2.97;;;23.40;53.40;;;;;;6155534;23;20164;-90
2022/09/30 12:41:54;;;;;;;9.37;3.27;;;23.30;52.40;;;;;;6160091;23;20162;-91
2022/09/30 12:45:05;;;;;;;4.70;2.80;;;23.20;52.60;;;;;;6170103;23;20190;-90
2022/09/30 12:47:47;;;;;;;4.53;2.57;;;23.20;52.90;;;;;;6157228;23;20203;-92
2022/09/30 12:50:24;;;;;;;4.30;2.23;;;23.10;53.70;;;;;;6158070;23;20196;-94
2022/09/30 12:52:52;;;;;;;5.50;2.70;;;23.10;52.80;;;;;;6155024;23;20186;-94
2022/09/30 12:55:30;;;;;;;6.10;2.90;;;23.10;53.40;;;;;;6152647;23;20169;-89
2022/09/30 12:58:12;;;;;;;10.60;4.33;;;23.10;52.60;;;;;;6152303;23;20509;-89
2022/09/30 13:00:39;;;;;;;6.13;3.10;;;23.10;53.10;;;;;;6152723;23;20281;-88
2022/09/30 13:03:14;;;;;;;9.90;4.30;;;23.10;52.90;;;;;;6156244;23;20605;-89
2022/09/30 13:05:53;;;;;;;7.67;3.60;;;23.10;53.30;;;;;;6154944;23;20168;-86
2022/09/30 13:08:45;;;;;;;8.77;3.27;;;23.10;52.60;;;;;;6155665;23;20766;-88
2022/09/30 13:11:36;;;;;;;6.87;3.17;;;23.00;52.50;;;;;;6107196;23;20197;-91
2022/09/30 13:14:18;;;;;;;8.60;3.30;;;23.00;52.70;;;;;;6151504;23;20550;-90
2022/09/30 13:17:26;;;;;;;7.57;2.90;;;22.90;52.90;;;;;;6151000;23;20631;-90
2022/09/30 13:20:02;;;;;;;6.73;2.53;;;22.90;52.90;;;;;;6141597;23;20181;-91
2022/09/30 13:22:58;;;;;;;5.93;2.63;;;22.90;52.80;;;;;;6156721;23;20189;-92
2022/09/30 13:25:26;;;;;;;7.73;2.80;;;22.90;53.20;;;;;;6151669;23;20173;-88
2022/09/30 13:28:24;;;;;;;9.87;3.47;;;22.90;52.90;;;;;;6151302;23;20345;-87
2022/09/30 13:31:12;;;;;;;7.50;3.23;;;22.90;52.30;;;;;;6150833;23;20540;-89
2022/09/30 13:33:46;;;;;;;5.03;2.20;;;22.90;52.20;;;;;;6153096;23;20183;-93
2022/09/30 13:36:26;;;;;;;7.60;3.23;;;22.80;52.30;;;;;;6157635;23;20175;-94
2022/09/30 13:39:27;;;;;;;7.40;3.23;;;22.80;52.90;;;;;;6157660;23;20178;-93
2022/09/30 13:42:11;;;;;;;7.67;3.30;;;22.80;53.00;;;;;;6157760;23;20166;-95
2022/09/30 13:45:02;;;;;;;10.03;3.70;;;22.80;52.60;;;;;;6154194;23;20171;-96
2022/09/30 13:47:37;;;;;;;11.73;4.57;;;22.90;53.00;;;;;;6153507;23;20167;-90
2022/09/30 13:50:18;;;;;;;8.07;3.00;;;22.90;53.00;;;;;;6155902;23;20186;-93
2022/09/30 13:52:49;;;;;;;4.43;2.20;;;22.90;51.80;;;;;;6156669;23;20619;-92
2022/09/30 13:55:25;;;;;;;12.60;5.17;;;22.90;52.40;;;;;;6156253;23;20165;-93
2022/09/30 13:58:07;;;;;;;4.63;2.30;;;22.90;51.80;;;;;;6156872;23;20169;-96
2022/09/30 14:00:54;;;;;;;4.33;2.37;;;22.90;51.30;;;;;;6157350;23;20256;-93
2022/09/30 14:03:51;;;;;;;8.60;3.80;;;22.90;51.50;;;;;;6156963;23;20208;-94
2022/09/30 14:06:31;;;;;;;9.73;4.00;;;22.90;51.30;;;;;;6158569;23;20197;-93
2022/09/30 14:09:16;;;;;;;11.40;4.47;;;22.80;50.70;;;;;;6155602;23;20260;-89
2022/09/30 14:12:11;;;;;;;5.83;2.63;;;22.80;50.80;;;;;;6152161;23;20252;-90
2022/09/30 14:15:16;;;;;;;8.90;3.33;;;22.70;50.90;;;;;;6149747;23;20178;-89
2022/09/30 14:18:03;;;;;;;10.90;3.83;;;22.60;50.60;;;;;;6134117;23;20188;-88
2022/09/30 14:20:43;;;;;;;11.00;3.53;;;22.60;50.30;;;;;;6152054;23;20173;-88
2022/09/30 14:23:14;;;;;;;6.37;2.97;;;22.50;50.60;;;;;;6150750;23;20230;-89
2022/09/30 14:25:49;;;;;;;5.07;2.53;;;22.40;50.40;;;;;;6151626;23;20206;-91
2022/09/30 14:28:25;;;;;;;7.07;3.00;;;22.30;50.40;;;;;;6152006;23;20638;-90
2022/09/30 14:31:11;;;;;;;8.83;2.83;;;22.20;51.00;;;;;;6151273;23;20247;-90
2022/09/30 14:33:50;;;;;;;4.87;2.43;;;22.10;50.80;;;;;;6152637;23;20511;-89
2022/09/30 14:36:21;;;;;;;8.03;3.40;;;22.10;51.10;;;;;;6152451;23;20173;-88
2022/09/30 14:39:01;;;;;;;4.50;2.37;;;22.00;51.10;;;;;;6154066;23;20201;-88
2022/09/30 14:41:30;;;;;;;10.20;3.93;;;22.00;51.00;;;;;;6153785;23;20612;-90
2022/09/30 14:44:06;;;;;;;5.80;2.80;;;21.90;51.20;;;;;;6155013;23;20172;-89
2022/09/30 14:46:38;;;;;;;6.47;2.80;;;21.90;51.30;;;;;;6153145;23;20703;-87
2022/09/30 14:49:11;;;;;;;7.87;3.27;;;21.80;51.40;;;;;;6152493;23;20172;-91
2022/09/30 14:51:44;;;;;;;5.70;2.47;;;21.80;51.30;;;;;;6153088;23;20280;-92
2022/09/30 14:54:18;;;;;;;9.70;3.93;;;21.80;51.70;;;;;;6153256;23;20244;-90
2022/09/30 14:56:47;;;;;;;7.57;2.47;;;21.80;51.20;;;;;;6160138;23;20169;-89
2022/09/30 14:59:18;;;;;;;10.40;4.03;;;21.70;50.50;;;;;;6166737;23;20169;-92
2022/09/30 15:01:48;;;;;;;7.57;3.23;;;21.70;50.50;;;;;;6156375;23;20545;-89
2022/09/30 15:04:25;;;;;;;11.70;4.47;;;21.70;50.40;;;;;;6155153;23;20694;-91
2022/09/30 15:06:54;;;;;;;8.43;3.37;;;21.60;50.80;;;;;;6151539;23;20284;-91
2022/09/30 15:09:31;;;;;;;13.90;5.27;;;21.60;50.60;;;;;;6152736;23;20174;-91
2022/09/30 15:12:06;;;;;;;12.23;4.13;;;21.50;50.20;;;;;;6152284;23;20201;-90
2022/09/30 15:14:45;;;;;;;13.13;4.57;;;21.40;50.30;;;;;;6152109;23;20196;-91
2022/09/30 15:17:18;;;;;;;11.43;4.20;;;21.40;50.60;;;;;;6152073;23;20197;-91
2022/09/30 15:22:37;;;;;;;7.13;2.93;;;21.30;50.60;;;;;;6153561;23;20209;-92
2022/09/30 15:25:05;;;;;;;9.80;3.63;;;21.20;51.00;;;;;;6152709;23;20654;-89
2022/09/30 15:27:35;;;;;;;10.00;3.97;;;21.20;51.30;;;;;;6153311;23;20499;-90
2022/09/30 15:30:56;;;;;;;12.87;4.67;;;21.20;51.40;;;;;;6155254;23;20173;-91
2022/09/30 15:33:30;;;;;;;9.57;3.33;;;21.10;51.20;;;;;;6154890;23;20194;-94
2022/09/30 15:36:28;;;;;;;7.13;2.93;;;21.10;51.60;;;;;;6170017;23;20168;-91
2022/09/30 15:40:44;;;;;;;12.17;4.63;;;21.10;51.50;;;;;;6162809;23;20185;-91
2022/09/30 15:42:34;;;;;;;10.47;4.40;;;21.00;51.50;;;;;;6169408;23;20561;-89
2022/09/30 15:45:02;;;;;;;10.10;3.97;;;20.90;51.10;;;;;;6170713;23;20169;-89
2022/09/30 15:47:29;;;;;;;10.37;4.17;;;20.90;51.60;;;;;;6164723;23;20180;-91
2022/09/30 15:49:57;;;;;;;9.50;3.93;;;20.90;51.80;;;;;;6165353;23;20283;-90
2022/09/30 15:52:36;;;;;;;12.60;4.67;;;20.80;51.70;;;;;;6159636;23;20235;-89
2022/09/30 15:55:35;;;;;;;10.33;3.90;;;20.80;51.50;;;;;;6153086;23;20169;-92
2022/09/30 15:58:04;;;;;;;10.67;4.23;;;20.80;51.60;;;;;;6152424;23;20850;-88
2022/09/30 16:00:37;;;;;;;9.63;4.13;;;20.70;51.70;;;;;;6153318;23;20245;-92
2022/09/30 16:03:35;;;;;;;13.27;4.80;;;20.70;51.70;;;;;;6169855;23;20169;-90
2022/09/30 16:06:07;;;;;;;10.17;4.50;;;20.60;51.60;;;;;;6101156;23;20241;-89
2022/09/30 16:08:43;;;;;;;7.23;3.33;;;20.60;51.70;;;;;;6161349;23;20177;-92
2022/09/30 16:11:19;;;;;;;7.83;3.40;;;20.60;51.70;;;;;;6162994;23;20201;-92
2022/09/30 16:13:57;;;;;;;9.27;3.93;;;20.50;51.80;;;;;;6159014;23;20175;-92
2022/09/30 16:16:27;;;;;;;12.87;4.03;;;20.50;52.10;;;;;;6136429;23;20205;-88
2022/09/30 16:18:56;;;;;;;9.23;4.17;;;20.50;52.10;;;;;;6166737;23;20178;-92
2022/09/30 16:21:49;;;;;;;17.60;5.93;;;20.50;52.30;;;;;;6154762;23;20170;-90
2022/09/30 16:24:47;;;;;;;13.30;4.97;;;20.50;52.20;;;;;;6172442;23;20162;-93
2022/09/30 16:27:29;;;;;;;14.23;6.00;;;20.40;52.30;;;;;;6174059;23;20599;-92
2022/09/30 16:30:37;;;;;;;12.43;4.73;;;20.40;52.40;;;;;;6175435;23;20165;-91
2022/09/30 16:33:12;;;;;;;11.30;4.27;;;20.30;52.50;;;;;;6160309;23;20188;-94
2022/09/30 16:36:03;;;;;;;7.50;3.90;;;20.30;52.50;;;;;;6158886;23;20183;-91
2022/09/30 16:38:30;;;;;;;7.63;3.80;;;20.30;52.60;;;;;;6122057;23;20187;-93
2022/09/30 16:40:59;;;;;;;11.30;4.70;;;20.20;52.60;;;;;;6155778;23;20193;-91
2022/09/30 16:43:37;;;;;;;10.77;4.37;;;20.20;52.70;;;;;;6156509;23;20220;-94
2022/09/30 16:46:05;;;;;;;16.53;5.57;;;20.10;52.70;;;;;;6154941;23;20236;-93
2022/09/30 16:48:43;;;;;;;11.20;5.13;;;20.10;52.70;;;;;;6156032;23;20584;-94
2022/09/30 16:54:30;;;;;;;8.23;3.77;;;20.00;53.10;;;;;;6134919;23;20180;-92
2022/09/30 16:57:09;;;;;;;9.93;3.87;;;19.90;53.30;;;;;;6154309;23;20275;-89
2022/09/30 16:59:37;;;;;;;7.70;3.37;;;19.90;53.30;;;;;;6153770;23;20180;-90
2022/09/30 17:02:05;;;;;;;7.47;4.00;;;19.90;53.30;;;;;;6152928;23;20251;-91
2022/09/30 17:04:46;;;;;;;11.73;5.10;;;19.80;53.30;;;;;;6155001;23;20180;-94
2022/09/30 17:07:39;;;;;;;9.07;4.27;;;19.80;53.30;;;;;;6154956;23;20494;-93
2022/09/30 17:10:27;;;;;;;11.00;4.57;;;19.80;53.40;;;;;;6162096;23;20176;-91
2022/09/30 17:12:58;;;;;;;6.87;3.83;;;19.80;53.50;;;;;;6174515;23;20193;-91
2022/09/30 17:15:28;;;;;;;10.57;3.83;;;19.80;53.50;;;;;;6162037;23;20184;-93
2022/09/30 17:17:57;;;;;;;7.43;3.83;;;19.70;53.50;;;;;;6158414;23;20287;-92
2022/09/30 17:20:24;;;;;;;12.20;5.63;;;19.70;53.40;;;;;;6153363;23;20498;-88
2022/09/30 17:22:52;;;;;;;6.43;3.57;;;19.60;53.40;;;;;;6156188;23;20200;-93
2022/09/30 17:25:19;;;;;;;9.37;4.53;;;19.60;53.50;;;;;;6153790;23;20173;-90
2022/09/30 17:27:48;;;;;;;13.90;5.50;;;19.60;53.30;;;;;;6155399;23;20246;-94
2022/09/30 17:30:16;;;;;;;8.83;4.03;;;19.50;53.30;;;;;;6155864;23;20200;-92
2022/09/30 17:32:47;;;;;;;6.43;3.70;;;19.50;53.30;;;;;;6156498;23;20228;-93
2022/09/30 17:35:16;;;;;;;7.97;4.03;;;19.40;53.40;;;;;;6156141;23;20177;-94
2022/09/30 17:37:44;;;;;;;9.20;3.87;;;19.40;53.40;;;;;;6156456;23;20622;-90
2022/09/30 17:43:31;;;;;;;7.67;3.80;;;19.30;53.60;;;;;;6156222;23;20308;-90
2022/09/30 17:46:00;;;;;;;13.60;5.47;;;19.20;53.50;;;;;;6154010;23;20503;-88
2022/09/30 17:48:28;;;;;;;10.30;4.83;;;19.20;53.70;;;;;;6154827;23;20213;-93
2022/09/30 17:50:56;;;;;;;12.90;4.43;;;19.10;53.80;;;;;;6154439;23;20184;-92
2022/09/30 17:53:28;;;;;;;6.33;3.40;;;19.10;53.80;;;;;;6158916;23;20521;-90
2022/09/30 17:56:02;;;;;;;9.97;4.73;;;19.10;53.90;;;;;;6161420;23;20170;-92
2022/09/30 17:58:29;;;;;;;7.27;3.97;;;19.00;53.90;;;;;;6158359;23;20196;-92
2022/09/30 18:00:58;;;;;;;8.20;3.80;;;19.00;53.90;;;;;;6157347;23;20684;-94
2022/09/30 18:03:27;;;;;;;9.67;4.33;;;19.10;54.10;;;;;;6156308;23;20377;-92
2022/09/30 18:05:58;;;;;;;9.70;4.03;;;19.00;54.00;;;;;;6153389;23;20623;-91
2022/09/30 18:08:27;;;;;;;4.73;2.90;;;19.00;54.10;;;;;;6153870;23;20232;-93
2022/09/30 18:10:56;;;;;;;10.20;4.43;;;18.90;53.90;;;;;;6156934;23;20173;-89
2022/09/30 18:13:25;;;;;;;7.33;3.63;;;18.90;54.00;;;;;;6157088;23;20168;-93
2022/09/30 18:15:58;;;;;;;8.30;3.73;;;18.90;54.10;;;;;;6153014;23;20227;-92
2022/09/30 18:18:25;;;;;;;12.53;4.97;;;18.90;54.20;;;;;;6156539;23;20688;-90
2022/09/30 18:20:52;;;;;;;11.53;4.00;;;18.90;54.20;;;;;;6156757;23;20536;-87
2022/09/30 18:23:25;;;;;;;7.53;3.87;;;18.90;54.30;;;;;;6154074;23;20634;-91
2022/09/30 18:25:53;;;;;;;6.70;3.40;;;18.80;54.30;;;;;;6155394;23;20254;-90
2022/09/30 18:28:20;;;;;;;9.53;4.00;;;18.80;54.30;;;;;;6154007;23;20216;-92
2022/09/30 18:30:47;;;;;;;7.90;3.33;;;18.80;54.30;;;;;;6154254;23;20239;-88
2022/09/30 18:33:16;;;;;;;10.37;4.37;;;18.70;54.40;;;;;;6153861;23;20271;-89
2022/09/30 18:35:45;;;;;;;8.23;3.50;;;18.70;54.40;;;;;;6155182;23;20181;-90
2022/09/30 18:38:14;;;;;;;11.73;3.73;;;18.70;54.50;;;;;;6153911;23;20281;-87
2022/09/30 18:40:44;;;;;;;7.70;3.53;;;18.70;54.60;;;;;;6155572;23;20174;-91
2022/09/30 18:43:16;;;;;;;8.80;3.97;;;18.60;54.50;;;;;;6155574;23;20170;-89
2022/09/30 18:45:51;;;;;;;7.57;3.20;;;18.60;54.50;;;;;;6152211;23;20279;-88
2022/09/30 18:48:20;;;;;;;12.83;5.13;;;18.60;54.50;;;;;;6152779;23;20200;-92
2022/09/30 18:50:50;;;;;;;7.63;3.37;;;18.60;54.50;;;;;;6151833;23;20177;-89
2022/09/30 18:53:18;;;;;;;9.47;3.60;;;18.60;54.50;;;;;;6151116;23;20274;-91
2022/09/30 18:55:49;;;;;;;11.07;3.50;;;18.60;54.50;;;;;;6153197;23;20252;-90
2022/09/30 18:58:16;;;;;;;8.50;3.07;;;18.60;54.50;;;;;;6153840;23;20536;-92
2022/09/30 19:00:44;;;;;;;9.60;3.83;;;18.60;54.60;;;;;;6152352;23;20262;-92
2022/09/30 19:03:20;;;;;;;10.23;4.03;;;18.60;55.00;;;;;;6153630;23;20546;-90
2022/09/30 19:05:51;;;;;;;6.67;2.90;;;18.60;55.10;;;;;;6153577;23;20176;-92
2022/09/30 19:08:18;;;;;;;8.53;3.43;;;18.50;55.30;;;;;;6153704;23;20202;-89
2022/09/30 19:10:54;;;;;;;7.53;3.20;;;18.50;55.50;;;;;;6158350;23;20187;-91
2022/09/30 19:13:26;;;;;;;8.63;3.50;;;18.40;55.90;;;;;;6163654;23;20192;-92
2022/09/30 19:16:03;;;;;;;7.67;3.27;;;18.40;56.10;;;;;;6163725;23;20189;-92
2022/09/30 19:18:30;;;;;;;5.40;2.57;;;18.40;56.80;;;;;;6156921;23;20218;-88
2022/09/30 19:21:04;;;;;;;4.47;2.27;;;18.30;56.70;;;;;;6156934;23;20478;-90
2022/09/30 19:23:40;;;;;;;7.83;3.23;;;18.30;57.10;;;;;;6154623;23;20630;-91
2022/09/30 19:26:10;;;;;;;7.90;3.10;;;18.20;57.30;;;;;;6170265;23;20216;-90
2022/09/30 19:28:43;;;;;;;3.67;1.90;;;18.20;57.20;;;;;;6169362;23;20167;-91
2022/09/30 19:31:18;;;;;;;8.30;2.93;;;18.00;57.70;;;;;;6159076;23;20255;-87
2022/09/30 19:34:09;;;;;;;7.20;2.93;;;18.00;57.60;;;;;;6154882;23;20182;-92
2022/09/30 19:36:36;;;;;;;7.27;2.87;;;17.90;58.30;;;;;;6156452;23;20191;-87
2022/09/30 19:39:04;;;;;;;10.47;4.17;;;17.80;58.00;;;;;;6162100;23;20178;-89
2022/09/30 19:41:34;;;;;;;7.27;2.97;;;17.70;58.20;;;;;;6169623;23;20186;-92
2022/09/30 19:44:04;;;;;;;5.40;2.43;;;17.60;58.60;;;;;;6158691;23;20167;-93
2022/09/30 19:46:37;;;;;;;7.50;3.40;;;17.50;58.70;;;;;;6157761;23;20226;-95
2022/09/30 19:49:06;;;;;;;7.87;2.93;;;17.50;59.00;;;;;;6157439;23;20182;-95
2022/09/30 19:51:33;;;;;;;8.57;3.70;;;17.40;59.50;;;;;;6155558;23;20275;-88
2022/09/30 19:54:02;;;;;;;10.47;3.60;;;17.30;59.50;;;;;;6155048;23;20166;-93
2022/09/30 19:56:29;;;;;;;8.70;4.13;;;17.20;59.70;;;;;;6155089;23;20169;-89
2022/09/30 19:58:59;;;;;;;12.57;4.60;;;17.10;59.80;;;;;;6153492;23;20228;-90
2022/09/30 20:01:55;;;;;;;11.40;4.17;;;17.00;60.30;;;;;;6155642;23;20241;-95
2022/09/30 20:04:26;;;;;;;8.00;3.23;;;17.00;61.70;;;;;;6153908;23;20498;-93
2022/09/30 20:06:55;;;;;;;9.27;3.77;;;16.90;60.80;;;;;;6129359;23;20177;-90
2022/09/30 20:09:26;;;;;;;9.17;3.67;;;16.80;60.80;;;;;;6153834;23;20225;-92
2022/09/30 20:11:53;;;;;;;7.13;3.17;;;16.80;61.20;;;;;;6153954;23;20185;-88
2022/09/30 20:17:06;;;;;;;9.50;3.73;;;16.70;61.70;;;;;;6154088;23;20265;-92
2022/09/30 20:19:38;;;;;;;8.13;3.43;;;16.60;61.50;;;;;;6155981;23;20182;-94
2022/09/30 20:22:08;;;;;;;11.30;4.13;;;16.50;62.80;;;;;;6154437;23;20316;-95
2022/09/30 20:24:37;;;;;;;10.63;3.33;;;16.50;62.30;;;;;;6156461;23;20248;-89
2022/09/30 20:27:07;;;;;;;9.90;3.50;;;16.40;62.20;;;;;;6156356;23;20177;-90
2022/09/30 20:29:42;;;;;;;14.57;5.23;;;16.40;63.00;;;;;;6153467;23;20208;-93
2022/09/30 20:32:30;;;;;;;8.63;3.33;;;16.30;64.00;;;;;;6153763;23;20198;-92
2022/09/30 20:35:10;;;;;;;5.57;3.13;;;16.30;65.20;;;;;;6140875;23;20267;-94
2022/09/30 20:37:40;;;;;;;4.80;2.37;;;16.20;64.00;;;;;;6153621;23;20174;-91
2022/09/30 20:40:09;;;;;;;11.47;4.30;;;16.10;64.10;;;;;;6153030;23;20184;-92
2022/09/30 20:42:50;;;;;;;8.70;3.40;;;16.10;64.80;;;;;;6155910;23;20259;-96
2022/09/30 20:45:44;;;;;;;10.80;3.73;;;16.10;65.60;;;;;;6154352;23;20173;-93